Time;durP1;ratioP1;P1;durP2;ratioP2;P2;SDS_P1;SDS_P2;PMS_P1;PMS_P2;Temp;Humidity;BMP_temperature;BMP_pressure;BME280_temperature;BME280_humidity;BME280_pressure;Samples;Min_cycle;Max_cycle;Signal;HPM_P1;HPM_P2
2022/05/20 00:00:33;;;;;;;0.50;0.33;;;15.70;99.90;;;;;;5079878;28;20453;-81
2022/05/20 00:03:00;;;;;;;0.50;0.30;;;15.70;99.90;;;;;;5079354;28;20441;-81
2022/05/20 00:05:27;;;;;;;0.50;0.40;;;15.70;99.90;;;;;;5079437;28;20445;-82
2022/05/20 00:07:54;;;;;;;0.50;0.30;;;15.60;99.90;;;;;;5079412;28;20432;-82
2022/05/20 00:10:22;;;;;;;0.50;0.40;;;15.40;99.90;;;;;;5079122;28;20843;-83
2022/05/20 00:12:51;;;;;;;0.50;0.40;;;15.30;99.90;;;;;;5079688;28;20477;-82
2022/05/20 00:15:20;;;;;;;0.50;0.40;;;15.30;99.90;;;;;;5079464;28;20438;-82
2022/05/20 00:17:47;;;;;;;0.50;0.40;;;15.20;99.90;;;;;;5078882;28;20444;-82
2022/05/20 00:20:18;;;;;;;0.50;0.40;;;15.10;99.90;;;;;;5079180;28;20452;-82
2022/05/20 00:22:45;;;;;;;0.50;0.40;;;15.10;99.90;;;;;;5078666;28;20444;-82
2022/05/20 00:28:01;;;;;;;0.50;0.40;;;15.00;99.90;;;;;;5079573;28;20396;-81
2022/05/20 00:30:28;;;;;;;0.50;0.40;;;14.90;99.90;;;;;;5079474;28;20464;-82
2022/05/20 00:32:55;;;;;;;0.50;0.40;;;14.80;99.90;;;;;;5078985;28;20436;-83
2022/05/20 00:35:23;;;;;;;0.50;0.30;;;14.80;99.90;;;;;;5078625;28;20904;-82
2022/05/20 00:37:50;;;;;;;0.50;0.30;;;14.70;99.90;;;;;;5078695;28;21134;-82
2022/05/20 00:40:21;;;;;;;0.50;0.40;;;14.70;99.90;;;;;;5078368;28;20460;-82
2022/05/20 00:42:49;;;;;;;0.57;0.57;;;14.70;99.90;;;;;;5078180;28;20447;-82
2022/05/20 00:45:19;;;;;;;0.50;0.40;;;14.70;99.90;;;;;;5078507;28;20960;-82
2022/05/20 00:47:45;;;;;;;0.50;0.40;;;14.60;99.90;;;;;;5078889;28;20443;-82
2022/05/20 00:50:15;;;;;;;0.50;0.40;;;14.60;99.90;;;;;;5078535;28;20436;-82
2022/05/20 00:52:46;;;;;;;0.50;0.40;;;14.60;99.90;;;;;;5078939;28;20798;-82
2022/05/20 00:55:18;;;;;;;0.50;0.40;;;14.60;99.90;;;;;;5078406;28;20440;-82
2022/05/20 00:57:49;;;;;;;0.50;0.40;;;14.60;99.90;;;;;;5078177;28;20517;-82
2022/05/20 01:00:21;;;;;;;0.50;0.40;;;14.50;99.90;;;;;;5078603;28;20833;-83
2022/05/20 01:02:51;;;;;;;0.50;0.40;;;14.50;99.90;;;;;;5078731;28;21155;-82
2022/05/20 01:05:25;;;;;;;0.50;0.40;;;14.50;99.90;;;;;;5078359;28;20432;-83
2022/05/20 01:07:53;;;;;;;0.50;0.40;;;14.50;99.90;;;;;;5077748;28;20427;-82
2022/05/20 01:10:19;;;;;;;0.70;0.60;;;14.60;99.90;;;;;;5077358;28;20464;-81
2022/05/20 01:12:47;;;;;;;0.50;0.40;;;14.60;99.90;;;;;;5077919;28;20790;-82
2022/05/20 01:15:13;;;;;;;0.50;0.40;;;14.60;99.90;;;;;;5078611;28;20448;-82
2022/05/20 01:17:42;;;;;;;0.50;0.40;;;14.70;99.90;;;;;;5077840;28;20444;-82
2022/05/20 01:20:15;;;;;;;0.50;0.30;;;14.70;99.90;;;;;;5077887;28;20475;-82
2022/05/20 01:22:49;;;;;;;1.23;1.13;;;14.70;99.90;;;;;;5078371;28;20436;-83
2022/05/20 01:25:16;;;;;;;0.50;0.40;;;14.70;99.90;;;;;;5078079;28;20442;-82
2022/05/20 01:27:43;;;;;;;5.03;1.03;;;14.80;99.90;;;;;;5077671;28;20444;-82
2022/05/20 01:30:12;;;;;;;0.50;0.40;;;14.90;99.90;;;;;;5077631;28;20506;-81
2022/05/20 01:32:39;;;;;;;0.50;0.40;;;14.90;99.90;;;;;;5077911;28;20443;-82
2022/05/20 01:35:11;;;;;;;0.50;0.40;;;15.00;99.90;;;;;;5076973;28;20451;-81
2022/05/20 01:37:38;;;;;;;0.50;0.40;;;15.00;99.90;;;;;;5077787;28;20448;-82
2022/05/20 01:40:08;;;;;;;1.23;1.23;;;15.00;99.90;;;;;;5077555;28;20476;-82
2022/05/20 01:42:54;;;;;;;0.50;0.37;;;15.00;99.90;;;;;;5077049;28;20542;-82
2022/05/20 01:45:29;;;;;;;0.50;0.40;;;15.00;99.90;;;;;;5077313;28;20448;-83
2022/05/20 01:48:05;;;;;;;0.50;0.40;;;15.00;99.90;;;;;;5078013;28;20436;-82
2022/05/20 01:50:38;;;;;;;0.50;0.40;;;14.80;99.90;;;;;;5077913;28;20467;-82
2022/05/20 01:53:11;;;;;;;0.50;0.40;;;14.70;99.90;;;;;;5076834;28;20437;-82
2022/05/20 01:55:43;;;;;;;0.50;0.40;;;14.70;99.90;;;;;;5077381;28;20440;-82
2022/05/20 01:58:16;;;;;;;0.50;0.40;;;14.60;99.90;;;;;;5076506;28;20440;-82
2022/05/20 02:00:44;;;;;;;0.50;0.40;;;14.60;99.90;;;;;;5077505;28;20467;-81
2022/05/20 02:03:15;;;;;;;1.93;1.63;;;14.50;99.90;;;;;;5077224;28;20471;-82
2022/05/20 02:05:46;;;;;;;0.50;0.40;;;14.50;99.90;;;;;;5076217;28;20435;-82
2022/05/20 02:08:18;;;;;;;0.50;0.40;;;14.40;99.90;;;;;;5076253;28;20447;-81
2022/05/20 02:10:51;;;;;;;0.50;0.40;;;14.30;99.90;;;;;;5077560;28;20483;-82
2022/05/20 02:13:19;;;;;;;0.50;0.40;;;14.30;99.90;;;;;;5076802;28;20436;-82
2022/05/20 02:15:52;;;;;;;0.50;0.40;;;14.20;99.90;;;;;;5076537;28;20467;-81
2022/05/20 02:18:24;;;;;;;0.50;0.40;;;14.20;99.90;;;;;;5076138;28;20440;-82
2022/05/20 02:20:54;;;;;;;0.50;0.40;;;14.10;99.90;;;;;;5076365;28;20518;-82
2022/05/20 02:23:24;;;;;;;0.50;0.40;;;14.10;99.90;;;;;;5076572;28;20447;-82
2022/05/20 02:25:56;;;;;;;0.50;0.40;;;14.00;99.90;;;;;;5076352;28;20435;-81
2022/05/20 02:28:28;;;;;;;0.50;0.40;;;14.10;99.90;;;;;;5076786;28;20432;-81
2022/05/20 02:30:58;;;;;;;0.50;0.40;;;14.10;99.90;;;;;;5076000;28;20456;-80
2022/05/20 02:33:27;;;;;;;0.50;0.40;;;14.10;99.90;;;;;;5079903;28;20839;-82
2022/05/20 02:36:02;;;;;;;0.50;0.40;;;14.00;99.90;;;;;;5076668;28;20436;-81
2022/05/20 02:38:28;;;;;;;0.50;0.40;;;14.00;99.90;;;;;;5076734;28;20905;-83
2022/05/20 02:40:56;;;;;;;0.50;0.37;;;13.90;99.90;;;;;;5076503;28;20471;-82
2022/05/20 02:43:24;;;;;;;0.50;0.40;;;13.90;99.90;;;;;;5076027;28;20455;-82
2022/05/20 02:45:52;;;;;;;0.50;0.40;;;13.90;99.90;;;;;;5078135;28;20779;-82
2022/05/20 02:48:21;;;;;;;1.07;0.97;;;13.90;99.90;;;;;;5075813;28;20849;-82
2022/05/20 02:50:49;;;;;;;0.50;0.43;;;13.90;99.90;;;;;;5076451;28;20471;-81
2022/05/20 02:53:16;;;;;;;0.50;0.40;;;13.90;99.90;;;;;;5076171;28;20459;-82
2022/05/20 02:55:42;;;;;;;0.50;0.40;;;13.90;99.90;;;;;;5076311;28;20440;-80
2022/05/20 03:04:09;;;;;;;0.50;0.40;;;13.90;99.90;;;;;;5076081;28;20436;-81
2022/05/20 03:06:27;;;;;;;1.50;1.40;;;13.70;99.90;;;;;;5076068;28;20474;-82
2022/05/20 03:08:54;;;;;;;0.50;0.37;;;13.70;99.90;;;;;;5075671;28;20806;-81
2022/05/20 03:11:20;;;;;;;1.83;1.80;;;13.70;99.90;;;;;;5075918;28;20449;-81
2022/05/20 03:13:49;;;;;;;0.70;0.70;;;13.70;99.90;;;;;;5076384;28;20439;-81
2022/05/20 03:16:15;;;;;;;0.50;0.40;;;13.80;99.90;;;;;;5076191;28;20444;-82
2022/05/20 03:18:42;;;;;;;0.50;0.40;;;13.70;99.90;;;;;;5075747;28;20929;-83
2022/05/20 03:21:09;;;;;;;0.60;0.57;;;13.70;99.90;;;;;;5075907;28;20453;-81
2022/05/20 03:23:35;;;;;;;0.60;0.60;;;13.60;99.90;;;;;;5076095;28;20455;-82
2022/05/20 03:26:03;;;;;;;0.50;0.40;;;13.60;99.90;;;;;;5076475;28;20432;-82
2022/05/20 03:28:30;;;;;;;0.50;0.40;;;13.60;99.90;;;;;;5076267;28;20940;-82
2022/05/20 03:31:04;;;;;;;0.50;0.40;;;13.60;99.90;;;;;;5075648;28;20460;-80
2022/05/20 03:33:30;;;;;;;0.50;0.40;;;13.50;99.90;;;;;;5077587;28;20444;-80
2022/05/20 03:35:57;;;;;;;0.50;0.40;;;13.50;99.90;;;;;;5078816;28;20444;-82
2022/05/20 03:38:24;;;;;;;0.50;0.40;;;13.60;99.90;;;;;;5078462;28;20637;-81
2022/05/20 03:40:50;;;;;;;0.50;0.33;;;13.60;99.90;;;;;;5078564;28;20484;-81
2022/05/20 03:43:17;;;;;;;0.50;0.40;;;13.60;99.90;;;;;;5078288;28;20451;-80
2022/05/20 03:45:44;;;;;;;0.50;0.40;;;13.50;99.90;;;;;;5078831;28;20447;-81
2022/05/20 03:48:12;;;;;;;0.50;0.40;;;13.50;99.90;;;;;;5079221;28;20778;-82
2022/05/20 03:50:39;;;;;;;0.50;0.40;;;13.50;99.90;;;;;;5079323;28;20475;-81
2022/05/20 03:53:06;;;;;;;0.50;0.40;;;13.50;99.90;;;;;;5079754;28;20435;-80
2022/05/20 03:55:32;;;;;;;0.50;0.30;;;13.60;99.90;;;;;;5079329;28;20444;-80
2022/05/20 03:57:59;;;;;;;0.50;0.40;;;13.60;99.90;;;;;;5077774;28;20440;-81
2022/05/20 04:00:26;;;;;;;0.50;0.40;;;13.60;99.90;;;;;;5077634;28;20472;-80
2022/05/20 04:02:51;;;;;;;0.50;0.30;;;13.60;99.90;;;;;;5078043;28;20455;-82
2022/05/20 04:05:19;;;;;;;0.50;0.40;;;13.70;99.90;;;;;;5078234;28;20437;-81
2022/05/20 04:07:46;;;;;;;0.50;0.40;;;13.70;99.90;;;;;;5077857;28;20205;-82
2022/05/20 04:10:13;;;;;;;0.50;0.40;;;13.70;99.90;;;;;;5078296;28;20436;-83
2022/05/20 04:12:42;;;;;;;0.50;0.40;;;13.70;99.90;;;;;;5076952;28;20462;-82
2022/05/20 04:15:11;;;;;;;0.50;0.40;;;13.80;99.90;;;;;;5078507;28;20519;-83
2022/05/20 04:17:37;;;;;;;0.50;0.40;;;13.90;99.90;;;;;;5077263;28;20836;-81
2022/05/20 04:20:06;;;;;;;0.50;0.30;;;14.00;99.90;;;;;;5078344;28;20468;-80
2022/05/20 04:22:36;;;;;;;0.50;0.40;;;14.00;99.90;;;;;;5077947;28;20475;-81
2022/05/20 04:25:03;;;;;;;0.67;0.50;;;14.10;99.90;;;;;;5078038;28;20432;-81
2022/05/20 04:27:31;;;;;;;0.50;0.40;;;14.20;99.90;;;;;;5076770;28;20448;-82
2022/05/20 04:29:59;;;;;;;0.50;0.40;;;14.20;99.90;;;;;;5077624;28;20436;-82
2022/05/20 04:32:26;;;;;;;0.50;0.40;;;14.30;99.90;;;;;;5077695;28;20436;-83
2022/05/20 04:34:53;;;;;;;0.50;0.30;;;14.40;99.90;;;;;;5077527;28;20444;-82
2022/05/20 04:37:22;;;;;;;0.50;0.40;;;14.50;99.90;;;;;;5078170;28;20437;-83
2022/05/20 04:39:50;;;;;;;0.50;0.40;;;14.50;99.90;;;;;;5077761;28;20522;-82
2022/05/20 04:47:46;;;;;;;1.60;1.50;;;14.80;99.90;;;;;;5077359;28;20416;-83
2022/05/20 04:50:12;;;;;;;0.50;0.40;;;14.90;99.90;;;;;;5077356;28;20428;-83
2022/05/20 04:52:39;;;;;;;0.50;0.40;;;15.00;99.90;;;;;;5077564;28;20447;-82
2022/05/20 04:55:08;;;;;;;0.50;0.40;;;15.00;99.90;;;;;;5078909;28;20444;-82
2022/05/20 04:57:37;;;;;;;0.80;0.70;;;15.10;99.90;;;;;;5079097;28;20440;-82
2022/05/20 05:00:07;;;;;;;0.50;0.30;;;15.00;99.90;;;;;;5077377;28;21028;-81
2022/05/20 05:02:35;;;;;;;0.50;0.30;;;15.10;99.90;;;;;;5077007;28;20436;-83
2022/05/20 05:05:02;;;;;;;0.50;0.40;;;15.10;99.90;;;;;;5076502;28;20844;-83
2022/05/20 05:07:29;;;;;;;0.50;0.30;;;15.10;99.90;;;;;;5076942;28;20449;-84
2022/05/20 05:09:56;;;;;;;0.50;0.30;;;15.20;99.90;;;;;;5073945;28;20452;-83
2022/05/20 05:12:24;;;;;;;0.50;0.30;;;15.10;99.90;;;;;;5069921;28;21019;-83
2022/05/20 05:14:53;;;;;;;0.50;0.40;;;15.20;99.90;;;;;;5061915;28;20445;-83
2022/05/20 05:18:09;;;;;;;0.50;0.40;;;15.30;99.90;;;;;;5062072;28;20452;-83
2022/05/20 05:20:11;;;;;;;0.50;0.30;;;15.40;99.90;;;;;;5059810;28;20493;-83
2022/05/20 05:22:38;;;;;;;0.50;0.30;;;15.60;99.90;;;;;;5060113;28;20437;-82
2022/05/20 05:25:05;;;;;;;0.50;0.40;;;15.70;99.90;;;;;;5059686;28;20449;-79
2022/05/20 05:27:33;;;;;;;0.50;0.40;;;15.90;99.90;;;;;;5060216;28;20448;-82
2022/05/20 05:30:00;;;;;;;0.50;0.40;;;15.90;99.90;;;;;;5060042;28;20438;-82
2022/05/20 05:32:28;;;;;;;1.00;1.00;;;16.00;99.90;;;;;;5061401;28;20430;-84
2022/05/20 05:34:54;;;;;;;0.50;0.40;;;16.20;99.90;;;;;;5062902;28;20810;-85
2022/05/20 05:37:21;;;;;;;1.80;0.90;;;16.40;99.90;;;;;;5060223;28;20435;-83
2022/05/20 05:39:48;;;;;;;0.60;0.60;;;16.50;99.90;;;;;;5058349;28;20516;-85
2022/05/20 05:42:14;;;;;;;0.73;0.73;;;16.70;99.90;;;;;;5058677;28;20487;-84
2022/05/20 05:44:42;;;;;;;1.03;1.03;;;16.80;99.90;;;;;;5073700;28;20457;-82
2022/05/20 05:47:09;;;;;;;0.50;0.30;;;16.90;99.90;;;;;;5078320;28;20970;-81
2022/05/20 05:49:36;;;;;;;0.50;0.37;;;17.00;99.90;;;;;;5079105;28;20934;-84
2022/05/20 05:52:03;;;;;;;0.50;0.40;;;17.20;99.90;;;;;;5075736;28;20456;-84
2022/05/20 05:54:30;;;;;;;0.50;0.30;;;17.40;99.90;;;;;;5076005;28;20440;-83
2022/05/20 05:56:57;;;;;;;0.50;0.40;;;17.50;99.90;;;;;;5076023;28;20463;-84
2022/05/20 05:59:23;;;;;;;0.50;0.40;;;17.70;99.90;;;;;;5076221;28;20440;-82
2022/05/20 06:01:57;;;;;;;2.43;1.47;;;17.90;99.90;;;;;;5076733;28;20465;-83
2022/05/20 06:04:24;;;;;;;0.50;0.30;;;18.10;99.90;;;;;;5076805;28;20903;-82
2022/05/20 06:06:51;;;;;;;4.53;1.60;;;18.70;99.90;;;;;;5076460;28;20446;-82
2022/05/20 06:09:18;;;;;;;0.50;0.30;;;19.20;99.90;;;;;;5076068;28;20438;-82
2022/05/20 06:11:45;;;;;;;0.50;0.40;;;20.00;99.90;;;;;;5076226;28;20463;-84
2022/05/20 06:14:11;;;;;;;0.80;0.80;;;21.10;99.90;;;;;;5076104;28;20443;-82
2022/05/20 06:16:39;;;;;;;0.90;0.70;;;22.00;99.90;;;;;;5075803;28;20441;-85
2022/05/20 06:19:07;;;;;;;0.50;0.40;;;23.00;99.90;;;;;;5074970;28;20447;-84
2022/05/20 06:21:33;;;;;;;0.50;0.50;;;23.80;99.90;;;;;;5075011;28;20481;-83
2022/05/20 06:24:01;;;;;;;0.60;0.53;;;24.50;99.90;;;;;;5075168;28;20447;-84
2022/05/20 06:26:28;;;;;;;0.80;0.80;;;24.80;99.90;;;;;;5074964;28;20439;-81
2022/05/20 06:28:55;;;;;;;0.90;0.60;;;25.40;99.90;;;;;;5075869;28;20451;-83
2022/05/20 06:31:21;;;;;;;0.50;0.40;;;25.70;99.90;;;;;;5075412;28;20460;-84
2022/05/20 06:33:48;;;;;;;0.50;0.30;;;26.20;99.90;;;;;;5078773;28;20447;-82
2022/05/20 06:41:45;;;;;;;0.70;0.70;;;28.00;88.10;;;;;;5086002;28;21016;-82
2022/05/20 06:44:12;;;;;;;0.50;0.40;;;27.70;83.50;;;;;;5086084;28;20428;-83
2022/05/20 06:46:38;;;;;;;0.50;0.40;;;27.70;84.00;;;;;;5088408;28;20432;-85
2022/05/20 06:49:06;;;;;;;0.50;0.30;;;28.00;83.70;;;;;;5078327;28;20432;-85
2022/05/20 06:51:36;;;;;;;0.90;0.90;;;27.90;81.30;;;;;;5076799;28;20480;-85
2022/05/20 06:54:05;;;;;;;1.37;1.37;;;28.00;80.40;;;;;;5076014;28;20432;-82
2022/05/20 06:56:32;;;;;;;1.43;1.43;;;28.70;85.30;;;;;;5074474;28;20432;-85
2022/05/20 06:59:01;;;;;;;0.60;0.50;;;29.30;78.30;;;;;;5074211;28;20445;-83
2022/05/20 07:01:29;;;;;;;0.50;0.30;;;30.20;73.20;;;;;;5074165;28;20476;-84
2022/05/20 07:03:56;;;;;;;0.60;0.30;;;30.10;71.30;;;;;;5075561;28;20436;-85
2022/05/20 07:06:25;;;;;;;0.50;0.30;;;30.80;71.50;;;;;;5077051;28;20540;-85
2022/05/20 07:08:53;;;;;;;0.50;0.30;;;31.50;67.00;;;;;;5074818;28;20436;-84
2022/05/20 07:11:23;;;;;;;1.27;0.73;;;31.50;65.00;;;;;;5074602;28;20476;-83
2022/05/20 07:13:52;;;;;;;0.53;0.47;;;32.10;64.10;;;;;;5075255;28;20440;-81
2022/05/20 07:16:19;;;;;;;0.50;0.40;;;32.60;60.60;;;;;;5074757;28;20440;-84
2022/05/20 07:18:46;;;;;;;0.50;0.30;;;32.70;59.50;;;;;;5075731;28;20488;-84
2022/05/20 07:21:12;;;;;;;0.50;0.30;;;33.40;60.00;;;;;;5075028;28;20471;-82
2022/05/20 07:23:39;;;;;;;0.50;0.30;;;33.60;60.30;;;;;;5073535;28;20475;-83
2022/05/20 07:26:08;;;;;;;0.50;0.30;;;34.10;58.80;;;;;;5075172;28;20440;-80
2022/05/20 07:28:35;;;;;;;0.60;0.60;;;34.80;58.70;;;;;;5074547;28;20436;-84
2022/05/20 07:31:02;;;;;;;0.50;0.33;;;34.40;55.10;;;;;;5074260;28;20452;-84
2022/05/20 07:33:30;;;;;;;1.17;1.07;;;32.40;55.70;;;;;;5074601;28;20431;-82
2022/05/20 07:35:57;;;;;;;0.50;0.30;;;32.30;56.80;;;;;;5075263;28;20527;-84
2022/05/20 07:38:24;;;;;;;0.50;0.30;;;32.20;57.70;;;;;;5074992;28;20451;-84
2022/05/20 07:40:51;;;;;;;0.50;0.30;;;32.70;57.10;;;;;;5073575;28;20486;-84
2022/05/20 07:43:20;;;;;;;0.50;0.30;;;32.80;57.60;;;;;;5073963;28;20452;-84
2022/05/20 07:45:47;;;;;;;0.50;0.30;;;32.50;57.20;;;;;;5074847;28;20490;-84
2022/05/20 07:48:14;;;;;;;0.50;0.30;;;32.50;58.10;;;;;;5074629;28;20447;-85
2022/05/20 07:50:45;;;;;;;0.50;0.30;;;32.40;59.50;;;;;;5075191;28;20856;-85
2022/05/20 07:53:31;;;;;;;1.67;0.53;;;32.30;59.10;;;;;;5074440;28;20428;-84
2022/05/20 07:56:03;;;;;;;0.50;0.30;;;32.50;62.50;;;;;;5074441;28;20801;-83
2022/05/20 07:58:34;;;;;;;0.50;0.40;;;32.90;61.60;;;;;;5076346;28;20417;-82
2022/05/20 08:01:03;;;;;;;0.50;0.30;;;33.10;58.80;;;;;;5075399;28;20484;-81
2022/05/20 08:06:17;;;;;;;0.60;0.30;;;32.30;61.30;;;;;;5074417;28;20527;-84
2022/05/20 08:08:44;;;;;;;0.50;0.30;;;32.80;60.50;;;;;;5074821;28;20448;-83
2022/05/20 08:11:11;;;;;;;0.50;0.37;;;33.50;61.40;;;;;;5075072;28;20460;-82
2022/05/20 08:13:39;;;;;;;0.60;0.50;;;34.00;60.00;;;;;;5074004;28;20829;-82
2022/05/20 08:16:05;;;;;;;0.50;0.30;;;34.80;57.00;;;;;;5074375;28;20816;-81
2022/05/20 08:18:32;;;;;;;0.50;0.30;;;34.40;56.60;;;;;;5073486;28;20443;-83
2022/05/20 08:20:59;;;;;;;0.50;0.40;;;33.30;58.20;;;;;;5077376;28;20482;-79
2022/05/20 08:23:26;;;;;;;0.50;0.30;;;32.10;59.70;;;;;;5076888;28;20467;-82
2022/05/20 08:25:53;;;;;;;0.50;0.30;;;31.40;61.40;;;;;;5077501;28;20805;-84
2022/05/20 08:28:20;;;;;;;0.50;0.30;;;30.40;63.30;;;;;;5077914;28;20809;-82
2022/05/20 08:30:48;;;;;;;0.70;0.40;;;29.40;65.90;;;;;;5077842;28;20456;-83
2022/05/20 08:33:15;;;;;;;0.50;0.30;;;29.20;70.40;;;;;;5076813;28;20436;-83
2022/05/20 08:35:42;;;;;;;3.40;1.17;;;29.30;73.00;;;;;;5077480;28;20432;-83
2022/05/20 08:38:08;;;;;;;0.50;0.30;;;29.70;69.50;;;;;;5077413;28;20451;-82
2022/05/20 08:40:39;;;;;;;0.50;0.30;;;29.60;70.00;;;;;;5072037;28;20495;-82
2022/05/20 08:43:06;;;;;;;0.50;0.30;;;29.30;70.10;;;;;;5075960;28;20468;-82
2022/05/20 08:45:33;;;;;;;0.50;0.30;;;29.00;71.50;;;;;;5077784;28;20440;-83
2022/05/20 08:48:04;;;;;;;1.33;1.23;;;28.50;72.10;;;;;;5072566;28;20952;-82
2022/05/20 08:50:37;;;;;;;0.50;0.30;;;28.20;73.80;;;;;;5066407;28;20483;-82
2022/05/20 08:53:08;;;;;;;0.50;0.30;;;28.60;76.20;;;;;;5055703;28;20437;-82
2022/05/20 08:55:35;;;;;;;0.50;0.30;;;29.20;77.10;;;;;;5053168;28;20421;-83
2022/05/20 08:58:05;;;;;;;0.50;0.30;;;30.10;73.50;;;;;;5054402;28;20445;-83
2022/05/20 09:00:32;;;;;;;0.50;0.30;;;30.10;71.20;;;;;;5054703;28;20497;-83
2022/05/20 09:03:06;;;;;;;0.50;0.30;;;29.90;72.20;;;;;;5054851;28;20441;-85
2022/05/20 09:05:36;;;;;;;0.50;0.30;;;29.60;74.20;;;;;;5054539;28;20754;-83
2022/05/20 09:08:05;;;;;;;0.50;0.30;;;29.30;77.00;;;;;;5055379;28;20457;-83
2022/05/20 09:10:38;;;;;;;0.50;0.30;;;29.00;79.80;;;;;;5056577;28;21008;-84
2022/05/20 09:13:18;;;;;;;0.60;0.40;;;28.80;79.90;;;;;;5056284;28;20448;-82
2022/05/20 09:15:57;;;;;;;0.50;0.30;;;28.00;78.90;;;;;;5056155;28;20433;-84
2022/05/20 09:18:35;;;;;;;0.50;0.30;;;27.30;83.40;;;;;;5055418;28;20451;-81
2022/05/20 09:21:02;;;;;;;0.50;0.30;;;27.10;89.80;;;;;;5055588;28;20838;-82
2022/05/20 09:23:28;;;;;;;1.17;1.07;;;27.10;99.50;;;;;;5055964;28;20437;-84
2022/05/20 09:26:02;;;;;;;0.50;0.30;;;27.30;95.60;;;;;;5056011;28;20441;-82
2022/05/20 09:28:34;;;;;;;0.50;0.30;;;28.10;94.70;;;;;;5056276;28;20422;-84
2022/05/20 09:31:13;;;;;;;1.43;1.27;;;29.00;95.00;;;;;;5054218;28;20452;-80
2022/05/20 09:33:48;;;;;;;0.50;0.30;;;29.40;84.70;;;;;;5056100;28;20483;-85
2022/05/20 09:36:33;;;;;;;0.50;0.30;;;29.20;85.50;;;;;;5055738;28;20457;-83
2022/05/20 09:39:10;;;;;;;0.50;0.40;;;28.90;86.50;;;;;;5055158;28;20425;-85
2022/05/20 09:41:46;;;;;;;0.70;0.50;;;28.70;89.80;;;;;;5056490;28;20575;-85
2022/05/20 09:44:15;;;;;;;0.50;0.30;;;28.90;92.90;;;;;;5060587;28;20445;-84
2022/05/20 09:46:51;;;;;;;0.50;0.30;;;28.60;95.50;;;;;;5069916;28;20497;-86
2022/05/20 09:49:30;;;;;;;0.50;0.30;;;29.00;99.50;;;;;;5061540;28;20437;-83
2022/05/20 09:52:00;;;;;;;0.50;0.40;;;28.60;91.20;;;;;;5061026;28;20464;-83
2022/05/20 09:54:32;;;;;;;0.50;0.30;;;28.20;93.20;;;;;;5058723;28;20432;-84
2022/05/20 09:57:04;;;;;;;2.33;1.40;;;29.00;94.90;;;;;;5059408;28;20425;-85
2022/05/20 09:59:40;;;;;;;0.50;0.30;;;29.70;87.10;;;;;;5058758;28;20444;-85
2022/05/20 10:02:14;;;;;;;0.50;0.30;;;30.50;86.20;;;;;;5059392;28;20488;-84
2022/05/20 10:04:55;;;;;;;0.50;0.30;;;30.80;81.70;;;;;;5059533;28;20455;-84
2022/05/20 10:07:34;;;;;;;3.90;1.60;;;31.40;80.70;;;;;;5059505;28;20784;-86
2022/05/20 10:10:08;;;;;;;2.13;1.43;;;32.10;79.80;;;;;;5059060;28;20429;-84
2022/05/20 10:12:38;;;;;;;2.63;2.50;;;32.40;73.50;;;;;;5058268;28;20440;-85
2022/05/20 10:15:13;;;;;;;0.50;0.30;;;32.60;72.00;;;;;;5057250;28;20473;-84
2022/05/20 10:17:50;;;;;;;1.23;1.03;;;32.40;71.90;;;;;;5058903;28;20475;-84
2022/05/20 10:20:27;;;;;;;0.50;0.30;;;32.60;72.50;;;;;;5057741;28;20429;-85
2022/05/20 10:23:01;;;;;;;0.50;0.30;;;32.60;73.10;;;;;;5057867;28;20475;-85
2022/05/20 10:25:35;;;;;;;0.50;0.30;;;33.00;71.60;;;;;;5056861;28;20516;-84
2022/05/20 10:28:07;;;;;;;0.50;0.30;;;33.10;70.50;;;;;;5055622;28;20441;-85
2022/05/20 10:33:26;;;;;;;0.50;0.30;;;34.20;67.30;;;;;;5054694;28;20415;-84
2022/05/20 10:36:15;;;;;;;0.50;0.50;;;34.80;65.50;;;;;;5056293;28;20425;-85
2022/05/20 10:38:52;;;;;;;1.87;1.00;;;33.60;67.70;;;;;;5055803;28;20476;-85
2022/05/20 10:41:30;;;;;;;0.50;0.30;;;32.90;67.60;;;;;;5054176;28;20480;-84
2022/05/20 10:50:05;;;;;;;0.50;0.40;;;32.10;72.20;;;;;;5070972;28;20420;-85
2022/05/20 10:53:04;;;;;;;1.13;1.13;;;31.90;74.60;;;;;;5074323;28;20408;-83
2022/05/20 10:55:43;;;;;;;1.17;1.17;;;32.10;75.30;;;;;;5071394;28;20539;-84
2022/05/20 10:58:35;;;;;;;0.50;0.30;;;32.40;74.10;;;;;;5074965;28;20890;-84
2022/05/20 11:01:10;;;;;;;0.50;0.30;;;33.40;77.50;;;;;;5075541;28;20460;-82
2022/05/20 11:04:12;;;;;;;0.50;0.30;;;34.30;70.40;;;;;;5075727;28;20415;-85
2022/05/20 11:07:03;;;;;;;0.50;0.30;;;34.90;68.70;;;;;;5059258;28;20448;-83
2022/05/20 11:09:44;;;;;;;0.50;0.50;;;34.90;66.00;;;;;;5074968;28;20810;-85
2022/05/20 11:12:18;;;;;;;0.50;0.30;;;34.70;66.80;;;;;;5085169;28;20988;-83
2022/05/20 11:15:22;;;;;;;0.50;0.30;;;34.30;66.90;;;;;;5078938;28;20436;-84
2022/05/20 11:18:12;;;;;;;0.50;0.30;;;33.70;68.70;;;;;;5077117;28;20455;-82
2022/05/20 11:21:12;;;;;;;0.50;0.30;;;33.40;69.70;;;;;;5076796;28;20807;-85
2022/05/20 11:24:10;;;;;;;0.50;0.33;;;33.80;70.30;;;;;;5076139;28;20425;-83
2022/05/20 11:26:52;;;;;;;0.50;0.30;;;34.10;68.60;;;;;;5077131;28;20426;-83
2022/05/20 11:29:43;;;;;;;0.60;0.60;;;34.70;69.10;;;;;;5076986;28;20439;-83
2022/05/20 11:32:12;;;;;;;0.60;0.43;;;34.90;68.10;;;;;;5075345;28;20456;-85
2022/05/20 11:35:01;;;;;;;0.50;0.30;;;34.50;68.00;;;;;;5075643;28;20464;-84
2022/05/20 11:37:54;;;;;;;0.57;0.50;;;34.90;67.60;;;;;;5074925;28;20471;-86
2022/05/20 11:40:46;;;;;;;0.70;0.40;;;34.30;68.70;;;;;;5074088;28;20467;-82
2022/05/20 11:43:41;;;;;;;0.73;0.73;;;33.70;70.30;;;;;;5074923;28;20495;-82
2022/05/20 11:46:20;;;;;;;1.33;1.03;;;33.80;70.20;;;;;;5074907;28;20443;-81
2022/05/20 11:49:13;;;;;;;0.70;0.50;;;33.50;70.70;;;;;;5074439;28;20897;-85
2022/05/20 11:52:12;;;;;;;0.50;0.30;;;32.90;72.50;;;;;;5076469;28;20448;-84
2022/05/20 11:54:45;;;;;;;0.50;0.30;;;33.20;73.70;;;;;;5076717;28;20450;-84
2022/05/20 11:57:17;;;;;;;0.50;0.30;;;33.20;73.40;;;;;;5078305;28;20758;-83
2022/05/20 11:59:52;;;;;;;1.27;1.27;;;33.30;73.20;;;;;;5077410;28;20446;-83
2022/05/20 12:02:19;;;;;;;0.50;0.40;;;33.40;73.30;;;;;;5077654;28;20476;-86
2022/05/20 12:04:49;;;;;;;0.50;0.40;;;33.70;74.20;;;;;;5077781;28;20538;-84
2022/05/20 12:07:19;;;;;;;0.50;0.37;;;33.50;73.00;;;;;;5077851;28;20793;-83
2022/05/20 12:09:46;;;;;;;0.50;0.40;;;33.40;74.10;;;;;;5077645;28;20447;-85
2022/05/20 12:12:24;;;;;;;0.60;0.40;;;33.50;75.20;;;;;;5077229;28;20460;-85
2022/05/20 12:15:30;;;;;;;0.50;0.30;;;33.30;74.70;;;;;;5078237;28;20420;-85
2022/05/20 12:17:57;;;;;;;0.50;0.30;;;33.20;75.80;;;;;;5076802;28;20466;-85
2022/05/20 12:26:23;;;;;;;0.50;0.30;;;31.60;78.80;;;;;;5077022;28;20411;-84
2022/05/20 12:28:50;;;;;;;2.27;1.90;;;30.50;84.80;;;;;;5076232;28;20455;-83
2022/05/20 12:31:39;;;;;;;1.33;1.07;;;29.70;91.60;;;;;;5076926;28;20456;-84
2022/05/20 12:34:09;;;;;;;0.50;0.40;;;28.80;99.90;;;;;;5076924;28;20447;-80
2022/05/20 12:36:38;;;;;;;0.60;0.40;;;28.30;99.90;;;;;;5076978;28;20894;-82
2022/05/20 12:39:19;;;;;;;0.50;0.30;;;27.90;99.90;;;;;;5077254;28;20535;-83
2022/05/20 12:42:00;;;;;;;2.00;0.93;;;27.60;99.90;;;;;;5077244;28;20479;-84
2022/05/20 12:44:31;;;;;;;0.50;0.50;;;27.10;99.90;;;;;;5076968;28;20440;-84
2022/05/20 12:47:09;;;;;;;0.50;0.50;;;26.70;99.90;;;;;;5076699;28;21010;-85
2022/05/20 12:49:39;;;;;;;0.50;0.30;;;26.50;99.90;;;;;;5076222;28;20435;-83
2022/05/20 12:52:14;;;;;;;0.50;0.30;;;26.30;99.90;;;;;;5077394;28;20480;-85
2022/05/20 12:54:43;;;;;;;0.80;0.70;;;25.80;99.90;;;;;;5077148;28;20427;-83
2022/05/20 12:57:14;;;;;;;0.50;0.30;;;25.40;99.90;;;;;;5077101;28;20444;-82
2022/05/20 12:59:41;;;;;;;0.50;0.33;;;25.10;99.90;;;;;;5077314;28;20420;-83
2022/05/20 13:02:14;;;;;;;0.50;0.30;;;24.80;99.90;;;;;;5076303;28;20476;-81
2022/05/20 13:04:46;;;;;;;0.50;0.30;;;24.50;99.90;;;;;;5075838;28;20421;-84
2022/05/20 13:07:17;;;;;;;0.50;0.30;;;24.30;99.90;;;;;;5076809;28;20448;-84
2022/05/20 13:09:45;;;;;;;0.50;0.30;;;24.10;99.90;;;;;;5077525;28;20434;-86
2022/05/20 13:12:18;;;;;;;0.50;0.40;;;23.70;99.90;;;;;;5076467;28;20483;-85
2022/05/20 13:14:46;;;;;;;0.50;0.40;;;23.50;99.90;;;;;;5077119;28;20906;-86
2022/05/20 13:17:15;;;;;;;0.50;0.30;;;23.40;99.90;;;;;;5076573;28;20489;-84
2022/05/20 13:19:46;;;;;;;0.50;0.30;;;23.10;99.90;;;;;;5077360;28;20436;-86
2022/05/20 13:22:15;;;;;;;0.50;0.30;;;22.80;99.90;;;;;;5076845;28;21059;-85
2022/05/20 13:24:42;;;;;;;0.50;0.40;;;22.70;99.90;;;;;;5077073;28;20444;-84
2022/05/20 13:27:12;;;;;;;1.80;1.70;;;22.60;99.90;;;;;;5076706;28;20448;-85
2022/05/20 13:29:41;;;;;;;0.50;0.30;;;22.40;99.90;;;;;;5077538;28;20524;-87
2022/05/20 13:32:12;;;;;;;0.50;0.30;;;22.20;99.90;;;;;;5077090;28;21313;-87
2022/05/20 13:34:42;;;;;;;0.60;0.60;;;22.00;99.90;;;;;;5077068;28;20444;-86
2022/05/20 13:37:12;;;;;;;0.50;0.30;;;21.90;99.90;;;;;;5076582;28;20444;-84
2022/05/20 13:39:40;;;;;;;0.50;0.30;;;21.80;99.90;;;;;;5075532;28;20440;-84
2022/05/20 13:42:09;;;;;;;0.50;0.30;;;21.60;99.90;;;;;;5075258;28;20529;-84
2022/05/20 13:44:36;;;;;;;3.97;0.80;;;21.40;99.90;;;;;;5075526;28;20471;-84